Time;durP1;ratioP1;P1;durP2;ratioP2;P2;SDS_P1;SDS_P2;PMS_P1;PMS_P2;Temp;Humidity;BMP_temperature;BMP_pressure;BME280_temperature;BME280_humidity;BME280_pressure;Samples;Min_cycle;Max_cycle;Signal;HPM_P1;HPM_P2
2022/07/15 00:02:25;;;;;;;12.02;2.97;;;19.50;86.00;;;16.37;79.96;101094.53;5029729;28;20050;-84
2022/07/15 00:04:52;;;;;;;11.68;2.70;;;19.50;85.90;;;16.28;80.68;101100.41;5012786;28;20453;-85
2022/07/15 00:07:21;;;;;;;9.88;2.83;;;19.40;86.10;;;16.23;81.35;101106.53;5030549;28;20045;-85
2022/07/15 00:12:34;;;;;;;7.68;2.50;;;19.30;86.70;;;16.10;81.88;101104.59;5012744;28;20049;-85
2022/07/15 00:15:02;;;;;;;8.70;3.03;;;19.30;86.80;;;16.10;81.83;101101.84;5030315;28;20046;-85
2022/07/15 00:17:29;;;;;;;7.65;2.70;;;19.30;86.80;;;16.02;82.92;101091.88;5030281;28;20124;-85
2022/07/15 00:19:56;;;;;;;9.85;2.70;;;19.20;87.10;;;15.94;83.03;101097.56;5029377;28;20045;-85
2022/07/15 00:22:23;;;;;;;9.52;3.00;;;19.20;87.20;;;16.00;82.58;101090.41;5030222;28;20472;-85
2022/07/15 00:24:52;;;;;;;5.93;2.35;;;19.20;87.30;;;15.97;82.73;101093.56;5030240;28;20112;-86
2022/07/15 00:27:19;;;;;;;9.40;2.92;;;19.10;87.30;;;16.03;82.47;101101.00;5030154;28;20549;-85
2022/07/15 00:29:46;;;;;;;9.77;3.15;;;19.10;87.30;;;16.05;82.42;101095.28;5011453;28;20148;-86
2022/07/15 00:32:13;;;;;;;9.27;2.75;;;19.10;87.30;;;15.99;83.03;101091.44;5030148;28;20091;-88
2022/07/15 00:34:41;;;;;;;8.90;2.97;;;19.10;87.90;;;15.97;82.99;101094.44;5030057;28;20049;-88
2022/07/15 00:37:08;;;;;;;9.23;2.40;;;19.00;87.60;;;15.98;83.17;101087.88;5030086;28;20578;-88
2022/07/15 00:39:36;;;;;;;11.27;2.92;;;19.00;87.70;;;15.96;83.31;101089.97;5029037;28;20552;-88
2022/07/15 00:42:05;;;;;;;9.88;2.70;;;19.00;87.70;;;16.00;82.29;101093.16;5011844;28;20041;-87
2022/07/15 00:44:32;;;;;;;8.15;2.67;;;19.00;87.40;;;16.00;82.11;101096.75;5030011;28;20089;-88
2022/07/15 00:47:00;;;;;;;9.90;3.15;;;19.00;87.50;;;16.00;82.18;101099.50;5030046;28;20033;-88
2022/07/15 00:49:27;;;;;;;10.73;3.03;;;19.00;87.50;;;15.89;82.51;101094.59;5029123;28;20472;-87
2022/07/15 00:51:57;;;;;;;9.15;3.22;;;19.00;87.50;;;16.02;80.85;101091.88;5012198;28;20806;-87
2022/07/15 00:54:26;;;;;;;8.73;3.00;;;19.00;86.70;;;15.95;81.35;101099.25;5011653;28;20041;-88
2022/07/15 00:56:56;;;;;;;8.25;2.67;;;18.90;87.00;;;15.89;81.77;101086.34;5012095;28;20046;-88
2022/07/15 00:59:32;;;;;;;12.65;2.70;;;18.90;87.10;;;15.86;81.22;101095.03;5028683;28;20428;-88
2022/07/15 01:01:59;;;;;;;13.13;2.92;;;18.90;86.80;;;15.92;80.49;101093.34;5029946;28;20084;-88
2022/07/15 01:04:29;;;;;;;11.32;2.95;;;18.90;86.50;;;15.98;79.80;101098.84;5029740;28;20434;-88
2022/07/15 01:06:56;;;;;;;6.70;2.47;;;18.90;86.20;;;15.99;79.56;101095.06;5029712;28;20073;-87
2022/07/15 01:09:23;;;;;;;8.98;2.85;;;18.90;85.90;;;16.06;79.52;101099.72;5011013;28;20042;-88
2022/07/15 01:11:51;;;;;;;10.75;2.97;;;18.90;86.10;;;16.03;80.39;101101.84;5011871;28;20301;-87
2022/07/15 01:14:19;;;;;;;11.18;2.53;;;18.90;86.70;;;16.08;79.29;101108.59;5014384;28;20060;-88
2022/07/15 01:16:49;;;;;;;9.82;2.75;;;18.90;86.30;;;16.21;78.60;101105.88;5015993;28;20053;-87
2022/07/15 01:19:18;;;;;;;7.45;2.50;;;18.90;85.70;;;16.13;79.32;101108.84;5014954;28;20103;-87
2022/07/15 01:21:48;;;;;;;11.02;2.90;;;18.90;86.30;;;16.15;80.06;101104.81;5015706;28;20037;-88
2022/07/15 01:24:16;;;;;;;8.27;2.33;;;18.90;86.60;;;16.15;79.40;101098.50;5015650;28;20053;-89
2022/07/15 01:26:48;;;;;;;9.57;2.60;;;18.90;86.60;;;16.21;77.94;101095.75;5015740;28;20085;-88
2022/07/15 01:29:18;;;;;;;8.02;2.28;;;18.90;85.80;;;16.20;79.00;101098.69;5014734;28;20529;-89
2022/07/15 01:31:46;;;;;;;9.88;2.55;;;18.90;86.30;;;16.26;78.39;101106.13;5015704;28;20063;-88
2022/07/15 01:34:13;;;;;;;9.85;2.45;;;18.90;86.10;;;16.27;77.35;101105.06;5015541;28;20072;-88
2022/07/15 01:36:41;;;;;;;8.05;2.17;;;18.90;85.70;;;16.30;77.41;101104.66;5015442;28;20104;-87
2022/07/15 01:39:09;;;;;;;9.38;2.30;;;18.90;85.20;;;16.36;76.67;101100.22;5014870;28;20041;-87
2022/07/15 01:41:37;;;;;;;10.45;2.55;;;18.90;85.20;;;16.37;76.91;101102.78;5015412;28;20057;-87
2022/07/15 01:44:05;;;;;;;12.30;2.47;;;18.90;85.30;;;16.42;76.63;101100.22;5015385;28;20041;-87
2022/07/15 01:46:32;;;;;;;12.77;2.50;;;18.90;85.20;;;16.39;76.49;101105.28;5015246;28;20140;-88
2022/07/15 01:51:47;;;;;;;6.95;2.30;;;18.90;85.10;;;16.37;76.86;101127.50;5015225;28;20057;-88
2022/07/15 01:54:15;;;;;;;11.55;2.85;;;18.90;85.60;;;16.37;76.89;101119.25;5033003;28;20049;-88
2022/07/15 01:56:43;;;;;;;12.95;2.58;;;18.90;85.60;;;16.37;76.85;101113.75;5015222;28;20502;-88
2022/07/15 01:59:11;;;;;;;12.18;2.65;;;18.90;85.60;;;16.40;76.71;101110.56;5013986;28;20526;-87
2022/07/15 02:01:39;;;;;;;12.40;2.67;;;19.00;85.40;;;16.35;77.11;101115.00;5014956;28;20069;-88
2022/07/15 02:04:12;;;;;;;13.05;3.05;;;18.90;85.60;;;16.27;77.54;101109.72;5015282;28;20053;-88
2022/07/15 02:06:40;;;;;;;11.00;2.53;;;18.90;85.70;;;16.28;77.54;101117.75;5015039;28;20140;-88
2022/07/15 02:09:09;;;;;;;11.50;2.75;;;18.90;85.60;;;16.24;78.20;101113.72;5013911;28;20045;-88
2022/07/15 02:11:43;;;;;;;10.07;2.55;;;18.90;86.10;;;16.29;77.51;101113.94;5015098;28;20049;-87
2022/07/15 02:14:11;;;;;;;14.32;2.85;;;18.90;85.90;;;16.34;77.02;101114.16;5014679;28;20045;-88
2022/07/15 02:16:39;;;;;;;14.07;3.40;;;18.90;85.50;;;16.33;77.25;101117.09;5014761;28;20049;-88
2022/07/15 02:19:10;;;;;;;10.25;3.00;;;18.90;85.70;;;16.22;77.74;101104.81;5013847;28;20065;-88
2022/07/15 02:21:37;;;;;;;12.88;3.42;;;18.80;85.90;;;16.18;78.39;101114.53;5014850;28;20046;-88
2022/07/15 02:24:06;;;;;;;12.75;3.03;;;18.90;86.30;;;16.03;79.30;101117.47;5014703;28;20091;-88
2022/07/15 02:26:33;;;;;;;8.05;2.50;;;18.80;86.50;;;15.90;79.94;101109.19;5013566;28;20054;-87
2022/07/15 02:29:02;;;;;;;10.30;2.63;;;18.80;86.60;;;15.79;80.44;101110.59;5013669;28;20077;-88
2022/07/15 02:31:30;;;;;;;13.07;3.25;;;18.80;86.80;;;15.73;80.96;101108.66;5014447;28;20042;-88
2022/07/15 02:33:57;;;;;;;10.50;2.80;;;18.80;87.00;;;15.70;81.29;101109.06;5014586;28;20095;-87
2022/07/15 02:36:29;;;;;;;10.48;2.75;;;18.70;87.20;;;15.57;82.13;101113.44;5014371;28;20045;-88
2022/07/15 02:38:57;;;;;;;6.88;2.75;;;18.70;87.50;;;15.43;82.71;101108.91;5031009;28;20568;-88
2022/07/15 02:41:25;;;;;;;10.82;2.60;;;18.60;87.50;;;15.38;83.43;101109.53;4994685;28;20065;-87
2022/07/15 02:43:53;;;;;;;11.32;3.03;;;18.60;87.70;;;15.34;83.26;101107.38;4994592;28;20042;-88
2022/07/15 02:46:22;;;;;;;9.95;2.88;;;18.60;87.90;;;15.30;83.84;101106.09;5011084;28;20046;-87
2022/07/15 02:48:50;;;;;;;9.50;2.95;;;18.50;88.30;;;15.21;84.47;101105.38;4993776;28;20132;-88
2022/07/15 02:51:17;;;;;;;10.30;3.10;;;18.50;88.30;;;15.12;84.97;101109.34;5012181;28;20046;-87
2022/07/15 02:53:44;;;;;;;11.20;2.90;;;18.40;88.40;;;15.05;85.06;101115.63;4994499;28;20034;-87
2022/07/15 02:56:16;;;;;;;9.35;3.17;;;18.40;88.40;;;15.01;85.59;101113.47;4994518;28;20042;-87
2022/07/15 02:58:43;;;;;;;12.75;3.10;;;18.40;88.80;;;14.96;85.91;101110.47;5010575;28;20152;-87
2022/07/15 03:01:11;;;;;;;10.68;2.83;;;18.30;89.00;;;14.97;85.99;101112.19;5013896;28;20056;-87
2022/07/15 03:03:41;;;;;;;10.07;3.13;;;18.30;89.20;;;14.92;86.06;101110.03;5031682;28;20047;-87
2022/07/15 03:06:13;;;;;;;9.75;2.63;;;18.30;89.20;;;14.85;86.61;101117.38;5013800;28;20061;-88
2022/07/15 03:08:40;;;;;;;10.80;3.03;;;18.20;89.40;;;14.82;86.74;101121.34;5013070;28;20344;-87
2022/07/15 03:11:07;;;;;;;11.57;2.97;;;18.20;89.50;;;14.77;87.11;101129.28;5013727;28;20132;-87
2022/07/15 03:13:35;;;;;;;9.82;2.97;;;18.10;89.60;;;14.69;87.58;101132.19;5031784;28;20049;-88
2022/07/15 03:16:03;;;;;;;8.35;2.65;;;18.10;89.80;;;14.64;87.97;101131.91;5013641;28;20536;-87
2022/07/15 03:18:32;;;;;;;10.20;3.08;;;18.10;90.00;;;14.61;88.55;101135.91;5012843;28;20052;-87
2022/07/15 03:21:00;;;;;;;7.55;2.67;;;18.00;90.10;;;14.56;88.46;101137.50;5031351;28;20148;-87
2022/07/15 03:23:27;;;;;;;17.75;3.17;;;18.00;90.20;;;14.55;88.59;101141.31;5013533;28;20046;-87
2022/07/15 03:25:55;;;;;;;10.38;3.00;;;18.00;90.40;;;14.44;89.33;101148.97;5013390;28;20141;-87
2022/07/15 03:28:22;;;;;;;8.27;2.90;;;17.90;90.50;;;14.41;89.70;101149.38;5012701;28;20513;-86
2022/07/15 03:30:50;;;;;;;9.77;3.10;;;17.90;90.80;;;14.38;89.66;101144.28;5013586;28;20045;-88
2022/07/15 03:33:17;;;;;;;8.82;3.00;;;17.90;90.80;;;14.31;89.88;101154.31;5013200;28;20136;-87
2022/07/15 03:35:47;;;;;;;10.40;3.17;;;17.80;90.80;;;14.30;90.63;101155.38;5013316;28;20048;-87
2022/07/15 03:38:15;;;;;;;8.75;2.70;;;17.80;91.00;;;14.30;90.37;101159.97;5012782;28;20167;-87
2022/07/15 03:40:43;;;;;;;10.32;2.97;;;17.70;91.00;;;14.30;90.53;101166.31;5012358;28;20666;-88
2022/07/15 03:43:10;;;;;;;12.65;3.20;;;17.70;91.30;;;14.38;90.33;101160.72;5013276;28;20088;-88
2022/07/15 03:45:37;;;;;;;9.85;2.85;;;17.70;91.50;;;14.38;90.35;101160.72;5031075;28;20045;-87
2022/07/15 03:48:06;;;;;;;11.70;3.33;;;17.70;91.50;;;14.35;90.49;101165.72;5012988;28;20053;-88
2022/07/15 03:50:36;;;;;;;6.68;2.88;;;17.70;91.60;;;14.31;91.02;101162.53;5012604;28;20046;-87
2022/07/15 03:53:03;;;;;;;8.55;3.05;;;17.70;91.80;;;14.27;91.37;101167.53;5013179;28;20132;-87
2022/07/15 03:55:32;;;;;;;10.60;3.05;;;17.60;91.80;;;14.28;91.22;101165.66;5012829;28;20585;-88
2022/07/15 03:57:59;;;;;;;9.85;3.25;;;17.60;91.90;;;14.30;91.04;101174.53;5030714;28;20053;-86
2022/07/15 04:00:26;;;;;;;14.25;3.80;;;17.60;92.00;;;14.26;91.47;101175.97;5080190;22;20048;-79
2022/07/15 04:02:53;;;;;;;13.07;3.30;;;17.60;91.90;;;14.22;91.70;101172.75;5052407;28;20143;-79
2022/07/15 04:05:21;;;;;;;8.52;2.70;;;17.60;92.40;;;14.34;91.69;101178.56;5070424;28;20078;-79
2022/07/15 04:07:52;;;;;;;8.82;2.60;;;17.60;92.40;;;14.34;91.75;101181.31;5052446;28;20139;-79
2022/07/15 04:10:19;;;;;;;7.55;2.95;;;17.60;92.60;;;14.36;91.88;101183.88;5087130;28;20107;-79
2022/07/15 04:12:48;;;;;;;9.73;3.05;;;17.60;92.70;;;14.39;91.80;101188.94;5072136;28;20093;-79
2022/07/15 04:15:15;;;;;;;8.18;3.05;;;17.60;92.80;;;14.38;91.73;101185.34;5072084;28;20044;-79
2022/07/15 04:17:45;;;;;;;10.55;3.20;;;17.50;92.90;;;14.36;92.09;101187.44;5072318;28;20580;-79
2022/07/15 04:20:13;;;;;;;12.68;2.95;;;17.50;93.00;;;14.43;92.65;101192.97;5071282;28;20064;-78
2022/07/15 04:22:47;;;;;;;8.40;3.58;;;17.50;93.30;;;14.43;92.56;101196.59;5072248;28;20105;-78
2022/07/15 04:25:18;;;;;;;10.13;3.13;;;17.50;93.30;;;14.51;92.36;101200.22;5090369;28;20047;-79
2022/07/15 04:27:47;;;;;;;8.10;2.67;;;17.50;93.50;;;14.57;92.50;101204.97;5072109;28;20527;-78
2022/07/15 04:30:15;;;;;;;7.63;3.13;;;17.50;93.70;;;14.64;92.45;101200.41;5071176;28;20040;-78
2022/07/15 04:32:48;;;;;;;10.18;3.30;;;17.60;93.70;;;14.70;92.17;101202.38;5072190;28;20143;-79
2022/07/15 04:35:15;;;;;;;10.13;3.35;;;17.60;93.80;;;14.78;92.21;101198.66;5071938;28;20055;-78
2022/07/15 04:37:44;;;;;;;12.25;3.10;;;17.60;93.90;;;14.84;92.48;101206.94;5071773;28;20047;-79
2022/07/15 04:40:13;;;;;;;10.68;3.20;;;17.70;94.20;;;14.93;92.19;101209.56;5070910;28;20048;-78
2022/07/15 04:42:43;;;;;;;9.70;3.05;;;17.70;94.40;;;14.99;91.99;101204.13;5071822;28;20587;-79
2022/07/15 04:45:14;;;;;;;9.23;3.42;;;17.70;94.30;;;15.08;91.95;101213.09;5071910;28;20083;-79
2022/07/15 04:47:42;;;;;;;12.27;3.75;;;17.70;94.30;;;15.27;91.08;101221.66;5071464;28;20040;-78
2022/07/15 04:52:59;;;;;;;12.73;3.17;;;17.90;94.10;;;15.54;89.93;101233.72;5071892;28;20164;-78
2022/07/15 04:55:27;;;;;;;10.40;3.08;;;18.00;93.90;;;15.76;88.38;101231.75;5071978;28;20051;-78
2022/07/15 04:58:02;;;;;;;13.23;3.70;;;18.00;93.80;;;15.96;86.93;101223.66;5068469;28;20044;-79
2022/07/15 05:00:31;;;;;;;7.72;3.30;;;18.00;93.10;;;16.12;85.64;101230.69;5089143;28;20043;-79
2022/07/15 05:02:58;;;;;;;10.32;3.30;;;18.10;93.00;;;16.26;85.42;101226.09;5071537;28;20048;-79
2022/07/15 05:05:28;;;;;;;12.10;3.58;;;18.20;92.90;;;16.38;84.43;101219.81;5071675;28;20074;-79
2022/07/15 05:07:56;;;;;;;9.52;3.08;;;18.20;92.40;;;16.45;83.56;101227.22;5071601;28;20055;-79
2022/07/15 05:10:23;;;;;;;17.67;3.60;;;18.30;92.10;;;16.60;82.71;101222.41;5070799;28;20519;-79
2022/07/15 05:13:02;;;;;;;9.10;3.28;;;18.40;91.90;;;16.71;82.98;101224.56;5071672;28;20083;-79
2022/07/15 05:15:33;;;;;;;12.13;3.40;;;18.50;91.90;;;16.64;83.26;101226.47;5071592;28;20048;-79
2022/07/15 05:18:10;;;;;;;11.10;3.10;;;18.50;92.00;;;16.50;82.64;101228.31;5088129;28;20059;-79
2022/07/15 05:20:38;;;;;;;11.45;3.20;;;18.60;91.20;;;16.45;83.22;101227.22;5071056;28;20545;-78
2022/07/15 05:23:05;;;;;;;7.88;3.15;;;18.50;91.20;;;16.52;83.89;101225.38;5071317;28;20050;-79
2022/07/15 05:25:37;;;;;;;13.35;3.40;;;18.60;91.70;;;16.63;83.60;101222.03;5071492;28;20048;-79
2022/07/15 05:28:05;;;;;;;8.68;3.05;;;18.60;92.00;;;16.74;81.83;101226.91;5089568;28;20520;-79
2022/07/15 05:30:35;;;;;;;12.90;3.58;;;18.60;91.10;;;16.74;81.93;101229.66;5070490;28;20117;-79
2022/07/15 05:33:03;;;;;;;16.05;3.60;;;18.70;91.20;;;16.83;81.84;101227.59;5088270;28;20060;-79
2022/07/15 05:35:30;;;;;;;14.80;4.22;;;18.70;91.10;;;16.97;80.62;101220.22;5071452;28;20068;-79
2022/07/15 05:37:57;;;;;;;12.35;3.38;;;18.70;90.80;;;16.95;79.96;101223.16;5071271;28;20044;-79
2022/07/15 05:40:29;;;;;;;14.57;3.40;;;18.80;90.50;;;16.99;80.85;101226.34;5070270;28;20048;-79
2022/07/15 05:42:57;;;;;;;18.33;3.08;;;18.80;91.00;;;16.96;80.25;101226.75;5071267;28;20066;-79
2022/07/15 05:45:26;;;;;;;10.88;3.10;;;18.80;90.30;;;16.93;80.06;101233.53;5071166;28;20105;-79
2022/07/15 05:48:03;;;;;;;15.65;3.08;;;18.80;90.30;;;16.99;77.46;101231.84;5071375;28;20500;-79
2022/07/15 05:50:35;;;;;;;15.88;3.60;;;18.80;89.10;;;17.03;76.58;101229.53;5070576;28;20055;-79
2022/07/15 05:53:03;;;;;;;12.73;3.25;;;18.80;88.40;;;16.99;78.06;101226.34;5070935;28;20142;-79
2022/07/15 05:55:30;;;;;;;16.00;2.90;;;18.90;89.00;;;17.07;76.31;101233.56;5071094;28;20571;-79
2022/07/15 05:57:58;;;;;;;13.20;2.50;;;18.90;88.10;;;18.47;70.02;101223.16;5071100;28;20115;-79
2022/07/15 06:00:29;;;;;;;9.85;2.55;;;19.00;86.10;;;23.27;54.46;101206.13;5071342;28;20036;-79
2022/07/15 06:02:57;;;;;;;10.25;2.47;;;19.30;84.30;;;23.76;50.44;101201.59;5074775;28;20047;-79
2022/07/15 06:05:28;;;;;;;8.95;2.30;;;19.60;83.30;;;21.77;55.00;101213.38;5074545;28;20227;-79
2022/07/15 06:07:59;;;;;;;13.82;2.90;;;19.80;82.80;;;21.83;54.08;101212.41;5074590;28;20051;-79
2022/07/15 06:10:36;;;;;;;9.30;2.47;;;20.00;81.60;;;22.39;53.12;101215.59;5090859;28;20044;-79
2022/07/15 06:13:03;;;;;;;11.73;1.95;;;20.30;81.00;;;24.32;49.30;101209.03;5074465;28;20101;-79
2022/07/15 06:15:31;;;;;;;10.02;2.10;;;20.50;80.50;;;26.83;41.66;101205.28;5093066;28;20040;-79
2022/07/15 06:17:59;;;;;;;10.40;2.03;;;20.90;78.80;;;28.18;38.90;101199.28;5074496;28;20174;-79
2022/07/15 06:20:32;;;;;;;8.35;2.13;;;21.30;76.90;;;29.14;36.91;101210.22;5073618;28;20573;-79
2022/07/15 06:23:01;;;;;;;8.00;2.35;;;21.60;76.60;;;29.56;35.07;101199.47;5074505;28;20066;-79
2022/07/15 06:25:28;;;;;;;6.90;1.90;;;21.90;75.20;;;29.46;34.22;101206.00;5092648;28;20036;-79
2022/07/15 06:27:55;;;;;;;9.70;2.38;;;22.00;73.10;;;29.49;33.76;101204.56;5073852;28;20127;-79
2022/07/15 06:30:22;;;;;;;6.18;1.67;;;22.10;73.10;;;28.84;34.10;101198.09;5073292;28;20078;-79
2022/07/15 06:32:49;;;;;;;7.72;1.80;;;22.20;72.00;;;25.51;39.26;101209.09;5074362;28;20140;-79
2022/07/15 06:35:17;;;;;;;6.47;1.92;;;22.20;71.10;;;23.51;44.45;101215.09;5074292;28;20040;-79
2022/07/15 06:37:46;;;;;;;7.30;1.95;;;22.20;71.30;;;22.58;49.49;101212.59;5092408;28;20126;-79
2022/07/15 06:40:14;;;;;;;9.40;2.05;;;22.30;73.60;;;22.00;48.83;101214.44;5073246;28;20051;-79
2022/07/15 06:42:41;;;;;;;13.30;2.55;;;22.30;71.70;;;21.78;51.16;101212.31;5074347;28;20052;-79
2022/07/15 06:45:11;;;;;;;7.60;1.95;;;22.30;73.30;;;22.06;50.62;101211.53;5073879;28;20052;-79
2022/07/15 06:47:42;;;;;;;10.85;1.85;;;22.20;72.60;;;22.05;51.14;101211.78;5074077;28;20048;-79
2022/07/15 06:50:10;;;;;;;9.63;2.50;;;22.20;72.90;;;21.84;50.62;101224.34;5088339;28;20036;-79
2022/07/15 06:52:41;;;;;;;8.88;1.60;;;22.10;72.80;;;21.56;49.68;101214.84;5090692;28;20044;-79
2022/07/15 06:55:11;;;;;;;8.30;1.48;;;22.10;70.70;;;21.41;49.53;101215.28;5073916;28;20043;-79
2022/07/15 06:57:40;;;;;;;6.57;1.85;;;22.10;70.40;;;21.35;49.61;101218.19;5073761;28;20048;-79
2022/07/15 07:00:09;;;;;;;7.78;2.20;;;22.10;69.90;;;21.07;51.67;101206.69;5072856;28;20062;-79
2022/07/15 07:02:39;;;;;;;8.20;1.83;;;22.00;70.90;;;20.99;53.51;101215.34;5073694;28;20040;-81
2022/07/15 07:05:08;;;;;;;12.05;1.98;;;22.00;72.90;;;20.91;54.53;101218.44;5073671;28;20150;-81
2022/07/15 07:07:35;;;;;;;11.38;2.03;;;21.90;73.70;;;20.94;54.42;101212.41;5073612;28;20504;-79
2022/07/15 07:10:03;;;;;;;12.57;2.20;;;21.90;73.80;;;20.55;54.85;101214.69;5072632;28;20048;-79
2022/07/15 07:12:31;;;;;;;8.20;1.88;;;21.80;73.30;;;20.16;57.12;101211.34;5073149;28;20052;-79
2022/07/15 07:15:00;;;;;;;10.07;2.50;;;21.80;74.90;;;19.79;58.12;101224.31;5091629;28;20111;-79
2022/07/15 07:17:28;;;;;;;8.85;2.05;;;21.70;74.50;;;19.49;59.14;101231.34;5091564;28;20040;-79
2022/07/15 07:19:55;;;;;;;9.77;1.95;;;21.60;74.30;;;19.27;60.88;101232.84;5090573;28;20130;-79
2022/07/15 07:22:23;;;;;;;11.75;1.90;;;21.50;75.20;;;19.07;60.08;101233.81;5091396;28;20040;-79
2022/07/15 07:24:51;;;;;;;10.43;1.83;;;21.40;74.60;;;19.06;60.27;101229.38;5091402;28;20039;-79
2022/07/15 07:27:18;;;;;;;11.57;2.10;;;21.30;75.20;;;19.17;62.13;101232.50;5091430;28;20063;-79
2022/07/15 07:29:46;;;;;;;7.80;1.90;;;21.30;76.30;;;19.24;61.62;101236.03;5090395;28;20496;-79
2022/07/15 07:32:13;;;;;;;10.15;2.17;;;21.30;76.30;;;19.43;59.26;101236.94;5091312;28;20044;-79
2022/07/15 07:34:41;;;;;;;10.30;1.77;;;21.20;75.20;;;19.41;59.88;101228.06;5091238;28;20050;-79
2022/07/15 07:37:08;;;;;;;9.50;2.20;;;21.10;75.50;;;19.48;59.04;101229.69;5091085;28;20054;-79
2022/07/15 07:39:35;;;;;;;7.80;1.65;;;21.10;74.90;;;19.36;58.97;101237.00;5090193;28;20048;-79
2022/07/15 07:42:02;;;;;;;10.15;1.88;;;21.10;75.00;;;19.36;59.44;101225.94;5091191;28;20147;-79
2022/07/15 07:44:29;;;;;;;7.38;1.55;;;21.10;75.50;;;19.47;60.55;101233.50;5091201;28;20123;-79
2022/07/15 07:46:58;;;;;;;8.55;1.90;;;21.10;76.30;;;19.52;59.26;101230.91;5091116;28;20143;-79
2022/07/15 07:49:26;;;;;;;10.63;1.92;;;21.00;75.70;;;19.57;59.59;101238.50;5089955;28;20054;-79
2022/07/15 07:51:53;;;;;;;10.63;2.33;;;21.00;76.10;;;19.66;61.06;101237.16;5090923;28;20052;-79
2022/07/15 07:54:21;;;;;;;8.15;1.70;;;21.00;77.50;;;19.71;60.28;101228.19;5090833;28;20043;-79
2022/07/15 07:56:48;;;;;;;10.95;1.95;;;21.00;77.10;;;19.94;60.64;101224.78;5091022;28;20055;-79
2022/07/15 07:59:15;;;;;;;8.35;2.20;;;21.00;77.60;;;20.10;61.23;101223.31;5089815;28;20047;-79
2022/07/15 08:01:42;;;;;;;7.07;1.70;;;21.00;79.20;;;19.92;60.69;101225.00;5090746;28;20117;-79
2022/07/15 08:04:11;;;;;;;10.40;2.05;;;21.00;77.60;;;19.78;60.87;101223.50;5090507;28;20036;-79
2022/07/15 08:06:39;;;;;;;7.30;1.85;;;21.10;78.00;;;19.42;62.62;101230.59;5090933;28;20043;-80
2022/07/15 08:09:06;;;;;;;8.43;2.03;;;21.00;77.90;;;19.28;63.11;101223.47;5089885;28;20058;-79
2022/07/15 08:11:33;;;;;;;9.35;2.15;;;21.00;78.60;;;19.29;60.31;101225.19;5090503;28;20075;-79
2022/07/15 08:14:01;;;;;;;10.23;2.00;;;21.00;76.70;;;19.37;61.73;101233.19;5090707;28;20147;-79
2022/07/15 08:16:28;;;;;;;5.63;1.50;;;20.90;78.20;;;19.66;62.81;101230.78;5090519;28;20097;-79
2022/07/15 08:18:56;;;;;;;8.65;1.92;;;20.90;78.40;;;19.87;60.63;101226.78;5089447;28;20569;-79
2022/07/15 08:21:25;;;;;;;8.55;1.70;;;21.00;78.80;;;19.84;59.69;101227.25;5090586;28;20412;-79
2022/07/15 08:23:54;;;;;;;10.75;1.90;;;21.00;77.90;;;19.94;60.04;101222.03;5089880;28;20075;-79
2022/07/15 08:26:23;;;;;;;5.72;1.50;;;21.00;77.90;;;20.11;59.05;101230.56;5090265;28;20119;-79
2022/07/15 08:28:51;;;;;;;7.50;1.33;;;21.10;77.80;;;20.28;58.80;101226.09;5089455;28;20072;-79
2022/07/15 08:31:19;;;;;;;6.40;1.23;;;21.10;77.40;;;20.58;59.04;101238.25;5090102;28;20085;-79
2022/07/15 08:33:46;;;;;;;7.63;1.70;;;21.10;78.50;;;20.61;56.59;101235.88;5089369;28;20044;-79
2022/07/15 08:36:14;;;;;;;9.88;1.77;;;21.20;75.40;;;20.14;55.40;101227.31;5090206;28;20040;-79
2022/07/15 08:38:42;;;;;;;7.28;1.52;;;21.20;75.10;;;19.77;57.71;101232.84;5089373;28;20523;-79
2022/07/15 08:41:09;;;;;;;9.57;1.90;;;21.10;74.80;;;19.90;58.60;101232.69;5089782;28;20119;-79
2022/07/15 08:43:38;;;;;;;6.38;1.50;;;21.10;76.00;;;20.03;56.55;101236.38;5090168;28;20121;-79
2022/07/15 08:46:10;;;;;;;6.28;1.40;;;21.20;75.10;;;19.96;56.54;101239.22;5090061;28;20089;-79
2022/07/15 08:48:38;;;;;;;7.28;1.52;;;21.20;74.40;;;20.09;58.00;101232.72;5089240;28;20104;-79
2022/07/15 08:51:08;;;;;;;7.45;1.38;;;21.10;76.10;;;20.51;56.78;101230.06;5089986;28;20048;-79
2022/07/15 08:53:35;;;;;;;5.43;1.27;;;21.20;76.20;;;20.64;53.10;101231.84;5090056;28;20043;-79
2022/07/15 08:56:04;;;;;;;6.03;1.02;;;21.20;73.60;;;20.61;53.96;101227.59;5090055;28;20059;-79
2022/07/15 08:58:36;;;;;;;8.05;1.45;;;21.30;72.90;;;20.41;53.63;101229.75;5070773;28;22038;-79
2022/07/15 09:01:03;;;;;;;4.70;1.20;;;21.30;71.70;;;20.20;55.57;101220.88;5086523;28;20043;-79
2022/07/15 09:03:31;;;;;;;8.23;1.73;;;21.30;73.10;;;19.97;55.83;101229.00;5089880;28;20094;-79
2022/07/15 09:05:58;;;;;;;6.82;1.60;;;21.30;72.70;;;20.19;57.55;101223.88;5089824;28;20071;-79
2022/07/15 09:08:25;;;;;;;6.18;1.52;;;21.30;75.30;;;20.59;58.63;101220.59;5089219;28;20050;-79
2022/07/15 09:10:56;;;;;;;7.63;1.52;;;21.30;76.90;;;20.37;56.02;101211.94;5089760;28;20046;-79
2022/07/15 09:13:31;;;;;;;9.75;1.83;;;21.30;75.50;;;20.29;57.62;101213.09;5089978;28;20051;-79
2022/07/15 09:16:00;;;;;;;6.65;1.70;;;21.30;75.30;;;20.23;58.13;101214.88;5089761;28;20044;-80
2022/07/15 09:18:31;;;;;;;8.85;1.63;;;21.30;75.90;;;20.03;58.36;101214.25;5088913;28;20123;-79
2022/07/15 09:20:59;;;;;;;9.30;2.25;;;21.30;75.90;;;19.76;59.96;101217.31;5089759;28;20105;-79
2022/07/15 09:23:33;;;;;;;7.97;1.60;;;21.30;76.30;;;19.66;61.20;101225.25;5089715;28;20047;-79
2022/07/15 09:26:23;;;;;;;9.20;1.67;;;21.20;77.10;;;19.57;59.33;101223.84;5089754;28;20500;-79
2022/07/15 09:28:51;;;;;;;7.20;2.08;;;21.20;75.60;;;19.54;56.96;101219.66;5088829;28;20060;-79
2022/07/15 09:34:18;;;;;;;8.05;1.70;;;21.10;74.00;;;19.63;57.63;101220.19;5090484;28;20070;-79
2022/07/15 09:36:50;;;;;;;7.30;1.80;;;21.10;74.80;;;20.11;57.16;101223.09;5093632;28;20062;-79
2022/07/15 09:39:19;;;;;;;6.70;1.70;;;21.10;74.80;;;20.60;57.49;101225.94;5092827;28;20044;-79
2022/07/15 09:41:47;;;;;;;9.55;2.05;;;21.20;76.30;;;20.85;56.51;101213.88;5093438;28;20036;-79
2022/07/15 09:44:18;;;;;;;6.65;2.10;;;21.30;76.30;;;20.92;56.65;101210.97;5093283;28;20459;-79
2022/07/15 09:46:48;;;;;;;8.00;2.28;;;21.30;76.30;;;20.72;55.00;101208.53;5093462;28;20101;-79
2022/07/15 09:49:32;;;;;;;9.77;2.00;;;21.30;74.00;;;20.75;53.00;101205.28;5092384;28;20097;-79
2022/07/15 09:52:06;;;;;;;6.80;1.88;;;21.30;73.00;;;20.82;53.46;101209.63;5093404;28;20052;-79
2022/07/15 09:54:36;;;;;;;6.90;2.35;;;21.40;73.10;;;20.77;54.17;101215.03;5093254;28;20048;-79
2022/07/15 09:57:06;;;;;;;7.30;1.85;;;21.40;73.10;;;20.45;53.12;101212.47;5093505;28;20035;-79
2022/07/15 09:59:35;;;;;;;6.47;1.70;;;21.40;72.00;;;20.32;54.69;101215.41;5092322;28;20074;-79
2022/07/15 10:02:02;;;;;;;5.15;1.65;;;21.40;72.60;;;20.22;56.71;101215.09;5092976;28;20071;-79
2022/07/15 10:04:31;;;;;;;7.45;1.90;;;21.40;73.20;;;20.21;57.26;101217.03;5093047;28;20055;-79
2022/07/15 10:07:00;;;;;;;6.90;1.80;;;21.40;75.00;;;20.30;58.06;101210.13;5092956;28;20040;-79
2022/07/15 10:09:31;;;;;;;7.43;2.08;;;21.40;75.70;;;20.60;57.60;101208.47;5073816;28;20052;-79
2022/07/15 10:12:05;;;;;;;6.22;2.25;;;21.40;76.50;;;20.77;59.87;101216.94;5092916;28;20036;-79
2022/07/15 10:15:05;;;;;;;8.80;1.50;;;21.50;78.50;;;20.85;54.94;101211.09;5092897;28;20793;-79
2022/07/15 10:18:02;;;;;;;8.55;2.00;;;21.40;75.20;;;20.79;57.91;101204.59;5092682;28;20059;-79
2022/07/15 10:21:12;;;;;;;9.70;2.08;;;21.50;76.90;;;20.73;58.01;101201.91;5091977;28;20075;-79
2022/07/15 10:24:00;;;;;;;6.38;1.50;;;21.50;76.30;;;20.74;54.92;101204.44;5092700;28;20521;-79
2022/07/15 10:26:44;;;;;;;6.38;1.30;;;21.50;73.90;;;20.70;53.42;101206.84;5092608;28;20131;-79
2022/07/15 10:29:12;;;;;;;5.00;1.10;;;21.50;73.00;;;20.66;55.09;101202.00;5091875;28;20052;-79
2022/07/15 10:31:41;;;;;;;5.78;1.08;;;21.50;73.90;;;20.59;56.01;101202.06;5092163;28;20051;-79